Airfield :
LOGIN :

Register | Disclaimer

   EN    FR    IT 

 










Legend :    VFR   Marginal VFR   IFR   Intensive IFR   Very Intensive IFR
Visi :
Ceiling :
>= 8 km
>= 3000ft
5 to 8 km
1000 to 3000 ft
1500m to 5 km
500 to 1000 ft
800 to 1500m
200 to 500 ft
< 800m
< 200 ft
Symbols :   Thunderstorms  Fog  Heavy snow  Heavy precipitations  Wind > 20 kt
SIGMETs :     Misc.  Thunderstorms  Icing  Turbulence  Mountain Waves  Volcanic Ashes







- Airport Elevation : 529 ft
- IATA code : CHR
- Download approach charts


LFLX - Chateauroux

CURRENT METAR :
  • 172200Z AUTO 22007KT CAVOK 19/17 Q1011 NOSIG

EXPIRED METARs :
  • 172130Z AUTO 22006KT CAVOK 20/17 Q1012 NOSIG
  • 172100Z AUTO 24005KT 9999 FEW045 BKN096 OVC170 21/18 Q1012 NOSIG
  • 172030Z AUTO 25006KT 9999 FEW044 BKN160 OVC190 21/18 Q1012 NOSIG
  • 172000Z AUTO 25009KT 9999 OVC041 22/18 Q1012 NOSIG
  • 171930Z AUTO 25010KT 9999 OVC041 22/18 Q1012 NOSIG

TAF TAF LFLX
Valid from the 17 at 18:00 until the 19 at 00:00 UTC


171700Z 1718/1824 22014KT 9999 BKN030
BECMG 1721/1723 24007KT
BECMG 1812/1814 30012KT
TEMPO 1811/1816 28017G27KT -SHRA BKN030TCU
BECMG 1818/1820 28005KT CAVOK
No reported NOTAMs for that airfield.



MET'MAP, your aeronautical weather chart ! - Copyright ORBIFLY December 2007 - Disclaimer

ORBIFLY MET'MAP TEAM :

Programming & Development : Alexandra Zaïnal
Concept & Development : Baudouin d'Aumeries
Co-Development & Prog : Marc-Olivier Méhu
Technical & hardware support : Manuel Goepfert

Contact : metmap@orbifly.com




SOURCES & CREDITS :

   NOAA